createdAt,value
2022-10-18T00:11:19.605Z,15.7
2022-10-18T00:16:19.597Z,15.6
2022-10-18T00:21:19.587Z,15.7
2022-10-18T00:26:19.595Z,15.6
2022-10-18T00:36:19.594Z,15.7
2022-10-18T00:51:19.607Z,15.8
2022-10-18T01:06:19.620Z,15.9
2022-10-18T01:26:19.626Z,16.0
2022-10-18T01:31:19.617Z,15.9
2022-10-18T01:36:19.626Z,16.0
2022-10-18T02:01:19.651Z,16.1
2022-10-18T02:06:19.630Z,16.2
2022-10-18T02:56:19.666Z,16.1
2022-10-18T03:11:19.649Z,16.2
2022-10-18T03:16:19.651Z,16.1
2022-10-18T03:26:19.662Z,16.0
2022-10-18T03:41:19.660Z,15.9
2022-10-18T04:16:19.674Z,15.8
2022-10-18T04:21:19.678Z,15.9
2022-10-18T04:31:19.683Z,15.8
2022-10-18T04:41:19.707Z,15.7
2022-10-18T05:06:19.720Z,15.6
2022-10-18T05:26:19.700Z,15.5
2022-10-18T05:31:19.698Z,15.4
2022-10-18T05:51:19.721Z,15.3
2022-10-18T06:46:19.740Z,15.2
2022-10-18T06:56:19.748Z,15.1
2022-10-18T07:01:19.839Z,15.0
2022-10-18T07:06:19.736Z,15.2
2022-10-18T07:11:19.741Z,15.1
2022-10-18T07:16:19.751Z,15.2
2022-10-18T07:21:19.746Z,15.0
2022-10-18T07:26:19.750Z,15.1
2022-10-18T07:31:19.766Z,15.2
2022-10-18T07:36:19.748Z,15.4
2022-10-18T07:41:19.757Z,15.2
2022-10-18T08:01:19.824Z,15.1
2022-10-18T08:11:19.758Z,15.2
2022-10-18T08:16:19.858Z,15.3
2022-10-18T08:21:19.765Z,15.4
2022-10-18T08:26:19.773Z,15.6
2022-10-18T08:31:19.773Z,15.7
2022-10-18T08:36:19.783Z,15.8
2022-10-18T08:41:19.766Z,16.1
2022-10-18T08:46:19.796Z,16.3
2022-10-18T08:51:19.784Z,16.4
2022-10-18T08:56:19.784Z,16.6
2022-10-18T09:11:19.837Z,16.7
2022-10-18T09:16:19.786Z,16.6
2022-10-18T09:21:19.779Z,17.0
2022-10-18T09:31:19.793Z,17.2
2022-10-18T09:36:19.785Z,18.0
2022-10-18T09:41:19.786Z,19.3
2022-10-18T09:46:19.797Z,18.6
2022-10-18T09:51:19.792Z,18.9
2022-10-18T09:56:19.803Z,18.6
2022-10-18T10:01:19.805Z,18.5
2022-10-18T10:06:19.798Z,18.4
2022-10-18T10:11:19.831Z,18.6
2022-10-18T10:16:19.819Z,18.7
2022-10-18T10:21:19.805Z,18.8
2022-10-18T10:26:19.811Z,18.9
2022-10-18T10:31:19.820Z,18.6
2022-10-18T10:36:19.806Z,19.1
2022-10-18T10:41:19.910Z,19.0
2022-10-18T10:46:19.824Z,18.7
2022-10-18T10:56:19.833Z,18.6
2022-10-18T11:06:19.835Z,18.7
2022-10-18T11:16:19.833Z,19.1
2022-10-18T11:21:19.821Z,19.8
2022-10-18T11:26:19.832Z,20.5
2022-10-18T11:31:19.841Z,20.0
2022-10-18T11:41:19.831Z,20.2
2022-10-18T11:46:19.839Z,20.3
2022-10-18T11:51:19.862Z,19.8
2022-10-18T11:56:19.839Z,19.7
2022-10-18T12:01:24.670Z,19.5
2022-10-18T12:06:19.839Z,19.9
2022-10-18T12:11:19.839Z,19.2
2022-10-18T12:16:33.475Z,18.5
2022-10-18T12:21:23.195Z,18.6
2022-10-18T12:31:19.864Z,18.3
2022-10-18T12:36:19.865Z,18.0
2022-10-18T12:41:19.857Z,17.8
2022-10-18T12:46:19.856Z,17.9
2022-10-18T12:51:19.874Z,17.8
2022-10-18T12:56:21.910Z,17.7
2022-10-18T13:01:19.956Z,17.9
2022-10-18T13:06:19.869Z,18.0
2022-10-18T13:11:19.879Z,18.1
2022-10-18T13:21:19.873Z,18.4
2022-10-18T13:26:19.871Z,18.6
2022-10-18T13:31:19.888Z,18.7
2022-10-18T13:36:22.958Z,18.8
2022-10-18T13:46:19.889Z,19.0
2022-10-18T13:56:19.897Z,19.2
2022-10-18T14:01:19.980Z,19.6
2022-10-18T14:06:19.903Z,19.4
2022-10-18T14:11:19.901Z,19.1
2022-10-18T14:16:19.900Z,19.4
2022-10-18T14:26:21.004Z,19.6
2022-10-18T14:31:19.917Z,20.0
2022-10-18T14:36:19.903Z,20.4
2022-10-18T14:41:19.909Z,20.2
2022-10-18T14:46:19.911Z,20.8
2022-10-18T14:51:20.006Z,20.5
2022-10-18T14:56:19.912Z,19.7
2022-10-18T15:01:19.933Z,19.5
2022-10-18T15:06:19.919Z,19.6
2022-10-18T15:11:19.920Z,19.3
2022-10-18T15:16:21.112Z,18.6
2022-10-18T15:26:19.915Z,18.2
2022-10-18T15:31:19.925Z,18.3
2022-10-18T15:36:19.919Z,18.0
2022-10-18T15:41:19.928Z,17.9
2022-10-18T15:46:19.933Z,17.7
2022-10-18T15:51:19.937Z,17.6
2022-10-18T15:56:19.940Z,17.4
2022-10-18T16:01:20.014Z,17.2
2022-10-18T16:06:19.939Z,17.1
2022-10-18T16:11:19.938Z,16.8
2022-10-18T16:16:19.944Z,16.5
2022-10-18T16:26:19.945Z,16.2
2022-10-18T16:31:19.962Z,16.3
2022-10-18T16:36:19.950Z,16.5
2022-10-18T16:41:19.957Z,16.1
2022-10-18T16:51:19.955Z,15.9
2022-10-18T16:56:19.961Z,15.8
2022-10-18T17:01:19.999Z,15.7
2022-10-18T17:06:19.952Z,15.8
2022-10-18T17:11:19.957Z,15.5
2022-10-18T17:16:20.017Z,15.2
2022-10-18T17:21:19.956Z,14.8
2022-10-18T17:26:28.511Z,14.5
2022-10-18T17:36:20.214Z,14.4
2022-10-18T17:41:19.971Z,14.1
2022-10-18T17:51:19.974Z,14.0
2022-10-18T18:01:19.986Z,14.1
2022-10-18T18:11:19.985Z,13.7
2022-10-18T18:16:20.002Z,13.5
2022-10-18T18:21:19.982Z,13.3
2022-10-18T18:31:20.003Z,13.5
2022-10-18T18:36:19.988Z,13.4
2022-10-18T18:46:19.995Z,13.5
2022-10-18T18:51:19.997Z,13.2
2022-10-18T19:06:23.119Z,12.8
2022-10-18T19:16:20.006Z,12.9
2022-10-18T19:21:20.049Z,12.8
2022-10-18T19:26:20.012Z,12.5
2022-10-18T19:31:20.011Z,12.4
2022-10-18T19:36:20.019Z,12.3
2022-10-18T19:41:20.120Z,12.4
2022-10-18T20:01:20.124Z,12.5
2022-10-18T20:06:20.013Z,12.3
2022-10-18T20:16:23.005Z,12.2
2022-10-18T20:21:20.034Z,11.9
2022-10-18T20:26:20.838Z,11.8
2022-10-18T20:36:20.042Z,11.7
2022-10-18T20:46:20.032Z,11.8
2022-10-18T20:56:20.082Z,11.6
2022-10-18T21:01:20.244Z,12.1
2022-10-18T21:06:20.050Z,11.9
2022-10-18T21:11:22.539Z,11.7
2022-10-18T21:16:20.050Z,11.9
2022-10-18T21:21:20.053Z,11.8
2022-10-18T21:26:20.038Z,11.5
2022-10-18T21:36:20.045Z,11.6
2022-10-18T21:41:20.068Z,11.5
2022-10-18T21:46:20.059Z,11.4
2022-10-18T21:51:20.771Z,11.5
2022-10-18T21:56:20.068Z,11.2
2022-10-18T22:01:20.163Z,10.8
2022-10-18T22:11:20.074Z,10.9
2022-10-18T22:16:20.085Z,11.1
2022-10-18T22:21:20.073Z,11.3
2022-10-18T22:26:20.059Z,11.2
2022-10-18T22:31:20.068Z,11.1
2022-10-18T22:36:20.076Z,10.8
2022-10-18T22:41:20.066Z,10.5
2022-10-18T22:51:20.083Z,10.6
2022-10-18T22:56:20.068Z,10.7
2022-10-18T23:01:20.083Z,10.8
2022-10-18T23:06:20.095Z,10.7
2022-10-18T23:21:20.078Z,10.5
2022-10-18T23:31:20.092Z,10.7
2022-10-18T23:36:20.091Z,10.8
2022-10-18T23:41:20.091Z,10.4
2022-10-18T23:46:20.140Z,9.9
2022-10-18T23:51:20.097Z,9.8
2022-10-18T23:56:20.103Z,10.0
